sensor_id;sensor_type;location;lat;lon;timestamp;pressure;altitude;pressure_sealevel;temperature;humidity
78509;BME280;67802;50.846;7.958;2023-05-07T00:01:25;97882.28;;;20.71;39.74
78509;BME280;67802;50.846;7.958;2023-05-07T00:03:51;97880.63;;;20.70;39.68
78509;BME280;67802;50.846;7.958;2023-05-07T00:06:16;97884.09;;;20.70;39.63
78509;BME280;67802;50.846;7.958;2023-05-07T00:08:42;97883.25;;;20.70;39.79
78509;BME280;67802;50.846;7.958;2023-05-07T00:11:07;97884.22;;;20.69;39.58
78509;BME280;67802;50.846;7.958;2023-05-07T00:13:32;97877.97;;;20.70;39.78
78509;BME280;67802;50.846;7.958;2023-05-07T00:16:01;97881.59;;;20.69;39.64
78509;BME280;67802;50.846;7.958;2023-05-07T00:18:27;97883.41;;;20.68;39.63
78509;BME280;67802;50.846;7.958;2023-05-07T00:20:52;97885.19;;;20.68;39.63
78509;BME280;67802;50.846;7.958;2023-05-07T00:23:17;97889.66;;;20.67;39.66
78509;BME280;67802;50.846;7.958;2023-05-07T00:25:42;97879.91;;;20.68;39.63
78509;BME280;67802;50.846;7.958;2023-05-07T00:28:08;97881.88;;;20.66;39.52
78509;BME280;67802;50.846;7.958;2023-05-07T00:30:33;97874.91;;;20.65;39.49
78509;BME280;67802;50.846;7.958;2023-05-07T00:32:58;97866.03;;;20.66;39.66
78509;BME280;67802;50.846;7.958;2023-05-07T00:35:24;97869.63;;;20.65;39.70
78509;BME280;67802;50.846;7.958;2023-05-07T00:37:49;97867.97;;;20.64;39.71
78509;BME280;67802;50.846;7.958;2023-05-07T00:40:14;97873.25;;;20.64;39.71
78509;BME280;67802;50.846;7.958;2023-05-07T00:42:40;97862.69;;;20.64;39.81
78509;BME280;67802;50.846;7.958;2023-05-07T00:45:05;97871.56;;;20.63;39.73
78509;BME280;67802;50.846;7.958;2023-05-07T00:47:32;97861.00;;;20.63;39.68
78509;BME280;67802;50.846;7.958;2023-05-07T00:49:58;97865.44;;;20.62;39.58
78509;BME280;67802;50.846;7.958;2023-05-07T00:52:25;97869.91;;;20.61;39.80
78509;BME280;67802;50.846;7.958;2023-05-07T00:54:51;97867.25;;;20.61;40.03
78509;BME280;67802;50.846;7.958;2023-05-07T00:57:17;97862.94;;;20.60;39.77
78509;BME280;67802;50.846;7.958;2023-05-07T00:59:42;97862.09;;;20.60;39.98
78509;BME280;67802;50.846;7.958;2023-05-07T01:02:07;97863.06;;;20.59;39.74
78509;BME280;67802;50.846;7.958;2023-05-07T01:04:33;97866.53;;;20.59;39.79
78509;BME280;67802;50.846;7.958;2023-05-07T01:06:59;97865.69;;;20.59;39.84
78509;BME280;67802;50.846;7.958;2023-05-07T01:09:26;97860.56;;;20.57;39.78
78509;BME280;67802;50.846;7.958;2023-05-07T01:11:53;97863.19;;;20.57;39.86
78509;BME280;67802;50.846;7.958;2023-05-07T01:14:20;97863.19;;;20.57;39.78
78509;BME280;67802;50.846;7.958;2023-05-07T01:16:46;97856.25;;;20.56;39.71
78509;BME280;67802;50.846;7.958;2023-05-07T01:19:12;97857.22;;;20.55;39.86
78509;BME280;67802;50.846;7.958;2023-05-07T01:21:45;97854.56;;;20.55;39.75
78509;BME280;67802;50.846;7.958;2023-05-07T01:24:11;97854.56;;;20.55;39.76
78509;BME280;67802;50.846;7.958;2023-05-07T01:26:36;97853.72;;;20.55;39.86
78509;BME280;67802;50.846;7.958;2023-05-07T01:29:02;97845.94;;;20.53;39.89
78509;BME280;67802;50.846;7.958;2023-05-07T01:31:27;97852.19;;;20.52;39.83
78509;BME280;67802;50.846;7.958;2023-05-07T01:33:54;97849.56;;;20.52;39.90
78509;BME280;67802;50.846;7.958;2023-05-07T01:36:21;97846.91;;;20.52;39.87
78509;BME280;67802;50.846;7.958;2023-05-07T01:38:51;97847.03;;;20.51;39.84
78509;BME280;67802;50.846;7.958;2023-05-07T01:41:17;97844.38;;;20.51;39.84
78509;BME280;67802;50.846;7.958;2023-05-07T01:43:42;97838.28;;;20.50;39.83
78509;BME280;67802;50.846;7.958;2023-05-07T01:46:08;97845.34;;;20.50;39.91
78509;BME280;67802;50.846;7.958;2023-05-07T01:48:35;97846.31;;;20.49;39.93
78509;BME280;67802;50.846;7.958;2023-05-07T01:51:01;97842.84;;;20.48;39.84
78509;BME280;67802;50.846;7.958;2023-05-07T01:53:27;97835.06;;;20.46;39.90
78509;BME280;67802;50.846;7.958;2023-05-07T01:55:53;97839.50;;;20.46;39.84
78509;BME280;67802;50.846;7.958;2023-05-07T01:58:18;97839.50;;;20.46;39.89
78509;BME280;67802;50.846;7.958;2023-05-07T02:00:44;97835.19;;;20.45;39.90
78509;BME280;67802;50.846;7.958;2023-05-07T02:03:09;97838.78;;;20.44;39.93
78509;BME280;67802;50.846;7.958;2023-05-07T02:05:34;97838.78;;;20.44;39.90
78509;BME280;67802;50.846;7.958;2023-05-07T02:08:00;97841.44;;;20.44;39.71
78509;BME280;67802;50.846;7.958;2023-05-07T02:10:25;97838.91;;;20.42;39.85
78509;BME280;67802;50.846;7.958;2023-05-07T02:12:50;97839.75;;;20.43;39.96
78509;BME280;67802;50.846;7.958;2023-05-07T02:15:16;97848.66;;;20.42;39.91
78509;BME280;67802;50.846;7.958;2023-05-07T02:18:02;97846.97;;;20.41;39.84
78509;BME280;67802;50.846;7.958;2023-05-07T02:20:27;97841.84;;;20.39;39.94
78509;BME280;67802;50.846;7.958;2023-05-07T02:22:52;97845.28;;;20.40;39.94
78509;BME280;67802;50.846;7.958;2023-05-07T02:25:18;97843.63;;;20.39;39.94
78509;BME280;67802;50.846;7.958;2023-05-07T02:27:43;97841.13;;;20.37;39.98
78509;BME280;67802;50.846;7.958;2023-05-07T02:30:09;97846.41;;;20.37;40.06
78509;BME280;67802;50.846;7.958;2023-05-07T02:35:40;97850.81;;;20.37;39.98
78509;BME280;67802;50.846;7.958;2023-05-07T02:38:05;97854.44;;;20.36;40.06
78509;BME280;67802;50.846;7.958;2023-05-07T02:40:31;97858.03;;;20.35;40.02
78509;BME280;67802;50.846;7.958;2023-05-07T02:42:58;97857.22;;;20.34;40.02
78509;BME280;67802;50.846;7.958;2023-05-07T02:45:24;97858.03;;;20.35;40.05
78509;BME280;67802;50.846;7.958;2023-05-07T02:47:49;97855.53;;;20.33;40.07
78509;BME280;67802;50.846;7.958;2023-05-07T02:50:15;97852.03;;;20.33;39.99
78509;BME280;67802;50.846;7.958;2023-05-07T02:52:40;97848.59;;;20.32;40.02
78509;BME280;67802;50.846;7.958;2023-05-07T02:55:05;97854.69;;;20.33;40.00
78509;BME280;67802;50.846;7.958;2023-05-07T02:57:31;97852.19;;;20.31;40.07
78509;BME280;67802;50.846;7.958;2023-05-07T02:59:57;97850.50;;;20.30;40.10
78509;BME280;67802;50.846;7.958;2023-05-07T03:02:23;97851.34;;;20.30;40.03
78509;BME280;67802;50.846;7.958;2023-05-07T03:04:48;97854.94;;;20.29;39.94
78509;BME280;67802;50.846;7.958;2023-05-07T03:07:13;97847.97;;;20.28;40.00
78509;BME280;67802;50.846;7.958;2023-05-07T03:09:39;97844.38;;;20.29;40.02
78509;BME280;67802;50.846;7.958;2023-05-07T03:12:05;97851.34;;;20.30;39.96
78509;BME280;67802;50.846;7.958;2023-05-07T03:14:30;97838.13;;;20.30;40.04
78509;BME280;67802;50.846;7.958;2023-05-07T03:16:55;97839.09;;;20.29;40.12
78509;BME280;67802;50.846;7.958;2023-05-07T03:19:21;97839.09;;;20.29;40.09
78509;BME280;67802;50.846;7.958;2023-05-07T03:21:46;97849.66;;;20.29;39.97
78509;BME280;67802;50.846;7.958;2023-05-07T03:24:11;97841.63;;;20.31;39.91
78509;BME280;67802;50.846;7.958;2023-05-07T03:26:36;97844.28;;;20.31;39.94
78509;BME280;67802;50.846;7.958;2023-05-07T03:29:02;97838.84;;;20.33;39.79
78509;BME280;67802;50.846;7.958;2023-05-07T03:31:27;97840.53;;;20.34;39.90
78509;BME280;67802;50.846;7.958;2023-05-07T03:33:54;97824.69;;;20.34;39.96
78509;BME280;67802;50.846;7.958;2023-05-07T03:36:20;97827.22;;;20.35;39.92
78509;BME280;67802;50.846;7.958;2023-05-07T03:38:46;97830.56;;;20.37;39.87
78509;BME280;67802;50.846;7.958;2023-05-07T03:41:12;97824.44;;;20.37;39.95
78509;BME280;67802;50.846;7.958;2023-05-07T03:43:37;97815.56;;;20.38;40.14
78509;BME280;67802;50.846;7.958;2023-05-07T03:46:03;97827.78;;;20.39;39.84
78509;BME280;67802;50.846;7.958;2023-05-07T03:48:28;97824.19;;;20.40;39.95
78509;BME280;67802;50.846;7.958;2023-05-07T03:50:53;97823.22;;;20.41;39.66
78509;BME280;67802;50.846;7.958;2023-05-07T03:53:18;97822.25;;;20.42;39.87
78509;BME280;67802;50.846;7.958;2023-05-07T03:55:44;97830.19;;;20.42;39.88
78509;BME280;67802;50.846;7.958;2023-05-07T03:58:09;97833.53;;;20.44;39.83
78509;BME280;67802;50.846;7.958;2023-05-07T04:00:34;97833.53;;;20.44;39.79
78509;BME280;67802;50.846;7.958;2023-05-07T04:03:03;97836.97;;;20.44;39.78
78509;BME280;67802;50.846;7.958;2023-05-07T04:05:29;97836.97;;;20.44;39.60
78509;BME280;67802;50.846;7.958;2023-05-07T04:07:54;97836.88;;;20.46;39.71
78509;BME280;67802;50.846;7.958;2023-05-07T04:10:20;97836.72;;;20.48;39.67
78509;BME280;67802;50.846;7.958;2023-05-07T04:12:45;97843.81;;;20.47;39.62
78509;BME280;67802;50.846;7.958;2023-05-07T04:15:10;97840.22;;;20.48;39.69
78509;BME280;67802;50.846;7.958;2023-05-07T04:17:36;97843.69;;;20.49;39.68
78509;BME280;67802;50.846;7.958;2023-05-07T04:20:02;97843.56;;;20.50;39.61
78509;BME280;67802;50.846;7.958;2023-05-07T04:22:27;97843.56;;;20.50;39.65
78509;BME280;67802;50.846;7.958;2023-05-07T04:24:52;97848.84;;;20.50;39.68
78509;BME280;67802;50.846;7.958;2023-05-07T04:27:18;97846.06;;;20.52;39.63
78509;BME280;67802;50.846;7.958;2023-05-07T04:29:43;97847.88;;;20.51;39.55
78509;BME280;67802;50.846;7.958;2023-05-07T04:32:12;97852.19;;;20.52;39.62
78509;BME280;67802;50.846;7.958;2023-05-07T04:34:37;97849.56;;;20.52;39.51
78509;BME280;67802;50.846;7.958;2023-05-07T04:37:03;97851.22;;;20.53;39.62
78509;BME280;67802;50.846;7.958;2023-05-07T04:39:28;97851.22;;;20.53;39.56
78509;BME280;67802;50.846;7.958;2023-05-07T04:41:53;97848.44;;;20.55;39.51
78509;BME280;67802;50.846;7.958;2023-05-07T04:44:18;97853.72;;;20.55;39.53
78509;BME280;67802;50.846;7.958;2023-05-07T04:46:44;97854.56;;;20.55;39.53
78509;BME280;67802;50.846;7.958;2023-05-07T04:49:09;97850.25;;;20.54;39.55
78509;BME280;67802;50.846;7.958;2023-05-07T04:51:35;97857.22;;;20.55;39.64
78509;BME280;67802;50.846;7.958;2023-05-07T04:54:00;97857.22;;;20.55;39.60
78509;BME280;67802;50.846;7.958;2023-05-07T04:56:27;97859.00;;;20.55;39.61
78509;BME280;67802;50.846;7.958;2023-05-07T04:58:53;97860.66;;;20.56;39.65
78509;BME280;67802;50.846;7.958;2023-05-07T05:01:19;97859.84;;;20.55;39.62
78509;BME280;67802;50.846;7.958;2023-05-07T05:03:44;97860.66;;;20.56;39.56
78509;BME280;67802;50.846;7.958;2023-05-07T05:06:10;97859.84;;;20.55;39.66
78509;BME280;67802;50.846;7.958;2023-05-07T05:08:35;97861.63;;;20.55;39.64
78509;BME280;67802;50.846;7.958;2023-05-07T05:11:01;97870.41;;;20.55;39.76
78509;BME280;67802;50.846;7.958;2023-05-07T05:13:27;97874.84;;;20.55;39.62
78509;BME280;67802;50.846;7.958;2023-05-07T05:15:52;97875.69;;;20.55;39.62
78509;BME280;67802;50.846;7.958;2023-05-07T05:18:18;97876.66;;;20.54;39.61
78509;BME280;67802;50.846;7.958;2023-05-07T05:20:43;97880.09;;;20.55;39.71
78509;BME280;67802;50.846;7.958;2023-05-07T05:23:08;97878.31;;;20.55;39.60
78509;BME280;67802;50.846;7.958;2023-05-07T05:25:34;97878.31;;;20.55;39.78
78509;BME280;67802;50.846;7.958;2023-05-07T05:27:59;97873.03;;;20.55;39.62
78509;BME280;67802;50.846;7.958;2023-05-07T05:30:24;97880.97;;;20.55;39.56
78509;BME280;67802;50.846;7.958;2023-05-07T05:32:50;97875.69;;;20.55;39.43
78509;BME280;67802;50.846;7.958;2023-05-07T05:35:15;97876.66;;;20.54;39.46
78509;BME280;67802;50.846;7.958;2023-05-07T05:37:41;97877.47;;;20.55;39.60
78509;BME280;67802;50.846;7.958;2023-05-07T05:40:06;97881.78;;;20.56;39.61
78509;BME280;67802;50.846;7.958;2023-05-07T05:42:32;97884.56;;;20.54;39.59
78509;BME280;67802;50.846;7.958;2023-05-07T05:44:57;97883.59;;;20.55;39.69
78509;BME280;67802;50.846;7.958;2023-05-07T05:47:22;97883.59;;;20.55;39.62
78509;BME280;67802;50.846;7.958;2023-05-07T05:49:48;97894.97;;;20.56;39.63
78509;BME280;67802;50.846;7.958;2023-05-07T05:52:13;97888.88;;;20.55;39.68
78509;BME280;67802;50.846;7.958;2023-05-07T05:54:39;97891.53;;;20.55;39.58
78509;BME280;67802;50.846;7.958;2023-05-07T05:57:04;97887.06;;;20.56;39.58
78509;BME280;67802;50.846;7.958;2023-05-07T05:59:31;97893.19;;;20.56;39.56
78509;BME280;67802;50.846;7.958;2023-05-07T06:01:56;97886.94;;;20.57;39.63
78509;BME280;67802;50.846;7.958;2023-05-07T06:04:21;97881.78;;;20.56;39.68
78509;BME280;67802;50.846;7.958;2023-05-07T06:06:46;97885.28;;;20.56;39.62
78509;BME280;67802;50.846;7.958;2023-05-07T06:09:12;97887.06;;;20.56;39.57
78509;BME280;67802;50.846;7.958;2023-05-07T06:11:37;97890.66;;;20.55;39.57
78509;BME280;67802;50.846;7.958;2023-05-07T06:14:02;97894.00;;;20.57;39.53
78509;BME280;67802;50.846;7.958;2023-05-07T06:16:28;97894.16;;;20.55;39.62
78509;BME280;67802;50.846;7.958;2023-05-07T06:18:53;97899.28;;;20.57;39.67
78509;BME280;67802;50.846;7.958;2023-05-07T06:21:18;97898.47;;;20.56;39.60
78509;BME280;67802;50.846;7.958;2023-05-07T06:23:44;97893.19;;;20.56;39.71
78509;BME280;67802;50.846;7.958;2023-05-07T06:26:09;97895.69;;;20.58;39.74
78509;BME280;67802;50.846;7.958;2023-05-07T06:28:34;97889.59;;;20.57;39.64
78509;BME280;67802;50.846;7.958;2023-05-07T06:31:17;97893.91;;;20.58;39.69
78509;BME280;67802;50.846;7.958;2023-05-07T06:33:45;97890.41;;;20.58;39.87
78509;BME280;67802;50.846;7.958;2023-05-07T06:36:10;97896.53;;;20.58;39.89
78509;BME280;67802;50.846;7.958;2023-05-07T06:38:36;97899.19;;;20.58;39.86
78509;BME280;67802;50.846;7.958;2023-05-07T06:41:01;97906.25;;;20.58;39.71
78509;BME280;67802;50.846;7.958;2023-05-07T06:43:26;97896.66;;;20.57;39.71
78509;BME280;67802;50.846;7.958;2023-05-07T06:45:51;97900.97;;;20.58;39.97
78509;BME280;67802;50.846;7.958;2023-05-07T06:48:17;97903.59;;;20.58;39.93
78509;BME280;67802;50.846;7.958;2023-05-07T06:50:42;97910.69;;;20.57;39.88
78509;BME280;67802;50.846;7.958;2023-05-07T06:53:07;97912.38;;;20.58;39.91
78509;BME280;67802;50.846;7.958;2023-05-07T06:55:33;97911.53;;;20.58;39.90
78509;BME280;67802;50.846;7.958;2023-05-07T06:57:58;97915.00;;;20.58;39.92
78509;BME280;67802;50.846;7.958;2023-05-07T07:00:26;97917.66;;;20.58;39.98
78509;BME280;67802;50.846;7.958;2023-05-07T07:02:51;97915.97;;;20.57;39.98
78509;BME280;67802;50.846;7.958;2023-05-07T07:05:17;97922.94;;;20.58;40.00
78509;BME280;67802;50.846;7.958;2023-05-07T07:07:42;97922.94;;;20.58;40.01
78509;BME280;67802;50.846;7.958;2023-05-07T07:10:08;97913.19;;;20.59;40.09
78509;BME280;67802;50.846;7.958;2023-05-07T07:12:33;97923.66;;;20.60;40.06
78509;BME280;67802;50.846;7.958;2023-05-07T07:14:58;97922.94;;;20.58;40.05
78509;BME280;67802;50.846;7.958;2023-05-07T07:17:23;97925.56;;;20.58;40.14
78509;BME280;67802;50.846;7.958;2023-05-07T07:19:49;97924.59;;;20.59;40.06
78509;BME280;67802;50.846;7.958;2023-05-07T07:22:14;97915.84;;;20.59;40.09
78509;BME280;67802;50.846;7.958;2023-05-07T07:24:39;97917.66;;;20.58;40.46
78509;BME280;67802;50.846;7.958;2023-05-07T07:27:05;97912.38;;;20.58;40.08
78509;BME280;67802;50.846;7.958;2023-05-07T07:29:30;97916.69;;;20.59;40.12
78509;BME280;67802;50.846;7.958;2023-05-07T07:31:56;97913.19;;;20.59;40.28
78509;BME280;67802;50.846;7.958;2023-05-07T07:34:21;97912.38;;;20.58;40.16
78509;BME280;67802;50.846;7.958;2023-05-07T07:36:46;97916.69;;;20.59;40.37
78509;BME280;67802;50.846;7.958;2023-05-07T07:39:12;97919.34;;;20.59;40.35
78509;BME280;67802;50.846;7.958;2023-05-07T07:41:37;97921.97;;;20.59;40.36
78509;BME280;67802;50.846;7.958;2023-05-07T07:44:03;97922.94;;;20.58;40.33
78509;BME280;67802;50.846;7.958;2023-05-07T07:46:29;97922.94;;;20.58;40.50
78509;BME280;67802;50.846;7.958;2023-05-07T07:48:54;97917.66;;;20.58;40.36
78509;BME280;67802;50.846;7.958;2023-05-07T07:51:19;97923.75;;;20.59;40.43
78509;BME280;67802;50.846;7.958;2023-05-07T07:53:45;97919.34;;;20.59;40.42
78509;BME280;67802;50.846;7.958;2023-05-07T07:56:10;97924.59;;;20.59;40.37
78509;BME280;67802;50.846;7.958;2023-05-07T07:58:36;97924.59;;;20.59;40.42
78509;BME280;67802;50.846;7.958;2023-05-07T08:01:03;97921.97;;;20.59;40.50
78509;BME280;67802;50.846;7.958;2023-05-07T08:03:28;97921.00;;;20.60;40.60
78509;BME280;67802;50.846;7.958;2023-05-07T08:05:56;97927.09;;;20.61;40.60
78509;BME280;67802;50.846;7.958;2023-05-07T08:08:22;97929.75;;;20.61;40.65
78509;BME280;67802;50.846;7.958;2023-05-07T08:10:47;97927.97;;;20.61;40.66
78509;BME280;67802;50.846;7.958;2023-05-07T08:13:15;97941.97;;;20.62;40.83
78509;BME280;67802;50.846;7.958;2023-05-07T08:15:40;97933.09;;;20.63;40.89
78509;BME280;67802;50.846;7.958;2023-05-07T08:18:05;97931.41;;;20.62;40.99
78509;BME280;67802;50.846;7.958;2023-05-07T08:20:31;97941.16;;;20.61;41.16
78509;BME280;67802;50.846;7.958;2023-05-07T08:22:56;97934.06;;;20.62;41.29
78509;BME280;67802;50.846;7.958;2023-05-07T08:25:21;97934.06;;;20.62;41.51
78509;BME280;67802;50.846;7.958;2023-05-07T08:27:47;97934.91;;;20.63;41.29
78509;BME280;67802;50.846;7.958;2023-05-07T08:30:12;97925.31;;;20.61;41.39
78509;BME280;67802;50.846;7.958;2023-05-07T08:32:38;97921.81;;;20.61;41.37
78509;BME280;67802;50.846;7.958;2023-05-07T08:35:03;97921.72;;;20.63;41.47
78509;BME280;67802;50.846;7.958;2023-05-07T08:37:29;97920.75;;;20.64;41.61
78509;BME280;67802;50.846;7.958;2023-05-07T08:39:54;97922.69;;;20.61;41.59
78509;BME280;67802;50.846;7.958;2023-05-07T08:42:20;97927.97;;;20.61;41.51
78509;BME280;67802;50.846;7.958;2023-05-07T08:44:50;97930.44;;;20.63;41.44
78509;BME280;67802;50.846;7.958;2023-05-07T08:47:18;97929.50;;;20.64;41.34
78509;BME280;67802;50.846;7.958;2023-05-07T08:49:44;97929.50;;;20.64;41.26
78509;BME280;67802;50.846;7.958;2023-05-07T08:52:11;97932.97;;;20.65;41.17
78509;BME280;67802;50.846;7.958;2023-05-07T08:54:37;97933.81;;;20.65;41.05
78509;BME280;67802;50.846;7.958;2023-05-07T08:57:03;97934.66;;;20.66;41.21
78509;BME280;67802;50.846;7.958;2023-05-07T08:59:28;97942.44;;;20.67;41.09
78509;BME280;67802;50.846;7.958;2023-05-07T09:01:53;97937.97;;;20.68;41.00
78509;BME280;67802;50.846;7.958;2023-05-07T09:04:19;97939.78;;;20.67;40.98
78509;BME280;67802;50.846;7.958;2023-05-07T09:06:44;97944.09;;;20.68;41.09
78509;BME280;67802;50.846;7.958;2023-05-07T09:09:14;97941.31;;;20.70;41.15
78509;BME280;67802;50.846;7.958;2023-05-07T09:11:39;97941.31;;;20.70;41.08
78509;BME280;67802;50.846;7.958;2023-05-07T09:14:04;97935.94;;;20.71;41.55
78509;BME280;67802;50.846;7.958;2023-05-07T09:16:30;97937.72;;;20.71;41.18
78509;BME280;67802;50.846;7.958;2023-05-07T09:18:58;97933.28;;;20.71;41.12
78509;BME280;67802;50.846;7.958;2023-05-07T09:21:23;97923.56;;;20.72;41.14
78509;BME280;67802;50.846;7.958;2023-05-07T09:23:53;97917.31;;;20.73;41.08
78509;BME280;67802;50.846;7.958;2023-05-07T09:26:21;97921.63;;;20.74;41.08
78509;BME280;67802;50.846;7.958;2023-05-07T09:28:47;97921.63;;;20.74;41.12
78509;BME280;67802;50.846;7.958;2023-05-07T09:31:12;97919.69;;;20.76;41.15
78509;BME280;67802;50.846;7.958;2023-05-07T09:33:39;97918.75;;;20.77;41.46
78509;BME280;67802;50.846;7.958;2023-05-07T09:36:06;97920.56;;;20.76;41.25
78509;BME280;67802;50.846;7.958;2023-05-07T09:38:33;97918.66;;;20.79;41.46
78509;BME280;67802;50.846;7.958;2023-05-07T09:41:06;97919.47;;;20.79;41.54
78509;BME280;67802;50.846;7.958;2023-05-07T09:43:33;97914.19;;;20.79;41.25
78509;BME280;67802;50.846;7.958;2023-05-07T09:46:02;97919.47;;;20.79;41.20
78509;BME280;67802;50.846;7.958;2023-05-07T09:48:28;97914.91;;;20.81;41.35
78509;BME280;67802;50.846;7.958;2023-05-07T09:50:55;97912.25;;;20.81;41.53
78509;BME280;67802;50.846;7.958;2023-05-07T09:53:24;97914.09;;;20.81;41.30
78509;BME280;67802;50.846;7.958;2023-05-07T09:55:50;97906.97;;;20.81;41.12
78509;BME280;67802;50.846;7.958;2023-05-07T09:58:16;97910.34;;;20.83;41.24
78509;BME280;67802;50.846;7.958;2023-05-07T10:00:43;97907.69;;;20.83;41.02
78509;BME280;67802;50.846;7.958;2023-05-07T10:03:09;97915.63;;;20.83;41.22
78509;BME280;67802;50.846;7.958;2023-05-07T10:05:35;97912.00;;;20.84;41.23
78509;BME280;67802;50.846;7.958;2023-05-07T10:08:01;97912.00;;;20.84;40.95
78509;BME280;67802;50.846;7.958;2023-05-07T10:10:27;97911.03;;;20.85;40.76
78509;BME280;67802;50.846;7.958;2023-05-07T10:12:53;97910.06;;;20.86;40.90
78509;BME280;67802;50.846;7.958;2023-05-07T10:15:19;97911.75;;;20.87;40.95
78509;BME280;67802;50.846;7.958;2023-05-07T10:17:45;97905.66;;;20.87;41.18
78509;BME280;67802;50.846;7.958;2023-05-07T10:20:10;97917.03;;;20.87;41.17
78509;BME280;67802;50.846;7.958;2023-05-07T10:22:41;97910.94;;;20.87;40.88
78509;BME280;67802;50.846;7.958;2023-05-07T10:28:11;97914.28;;;20.89;41.12
78509;BME280;67802;50.846;7.958;2023-05-07T10:33:05;97913.31;;;20.90;41.11
78509;BME280;67802;50.846;7.958;2023-05-07T10:35:37;97906.22;;;20.90;41.25
78509;BME280;67802;50.846;7.958;2023-05-07T10:38:04;97909.00;;;20.89;40.98
78509;BME280;67802;50.846;7.958;2023-05-07T10:40:31;97899.25;;;20.89;40.90
78509;BME280;67802;50.846;7.958;2023-05-07T10:42:58;97909.72;;;20.91;41.00
78509;BME280;67802;50.846;7.958;2023-05-07T10:45:28;97917.22;;;20.96;40.85
78509;BME280;67802;50.846;7.958;2023-05-07T10:48:13;97914.06;;;21.02;40.94
78509;BME280;67802;50.846;7.958;2023-05-07T10:50:45;97909.94;;;21.09;40.72
78509;BME280;67802;50.846;7.958;2023-05-07T10:55:47;97908.88;;;21.22;40.92
78509;BME280;67802;50.846;7.958;2023-05-07T11:00:47;97910.88;;;21.29;41.01
78509;BME280;67802;50.846;7.958;2023-05-07T11:03:13;97900.28;;;21.29;40.98
78509;BME280;67802;50.846;7.958;2023-05-07T11:05:40;97905.59;;;21.29;40.94
78509;BME280;67802;50.846;7.958;2023-05-07T11:08:06;97909.75;;;21.32;40.89
78509;BME280;67802;50.846;7.958;2023-05-07T11:10:54;97908.94;;;21.31;40.95
78509;BME280;67802;50.846;7.958;2023-05-07T11:13:48;97908.06;;;21.31;41.11
78509;BME280;67802;50.846;7.958;2023-05-07T11:16:18;97907.09;;;21.32;40.88
78509;BME280;67802;50.846;7.958;2023-05-07T11:21:31;97906.13;;;21.33;40.93
78509;BME280;67802;50.846;7.958;2023-05-07T11:23:58;97904.34;;;21.33;41.15
78509;BME280;67802;50.846;7.958;2023-05-07T11:26:24;97901.72;;;21.33;41.14
78509;BME280;67802;50.846;7.958;2023-05-07T11:28:51;97902.53;;;21.34;41.46
78509;BME280;67802;50.846;7.958;2023-05-07T11:31:20;97895.44;;;21.34;41.23
78509;BME280;67802;50.846;7.958;2023-05-07T11:33:46;97898.91;;;21.35;41.05
78509;BME280;67802;50.846;7.958;2023-05-07T11:36:12;97898.09;;;21.34;40.95
78509;BME280;67802;50.846;7.958;2023-05-07T11:38:37;97899.88;;;21.34;41.09
78509;BME280;67802;50.846;7.958;2023-05-07T11:41:03;97895.44;;;21.34;40.89
78509;BME280;67802;50.846;7.958;2023-05-07T11:43:30;97898.09;;;21.34;40.94
78509;BME280;67802;50.846;7.958;2023-05-07T11:48:22;97892.09;;;21.32;40.78
78509;BME280;67802;50.846;7.958;2023-05-07T11:53:26;97900.03;;;21.32;40.78
78509;BME280;67802;50.846;7.958;2023-05-07T11:55:55;97901.81;;;21.32;40.87
78509;BME280;67802;50.846;7.958;2023-05-07T11:58:22;97897.50;;;21.31;40.84
78509;BME280;67802;50.846;7.958;2023-05-07T12:00:52;97901.13;;;21.30;40.82
78509;BME280;67802;50.846;7.958;2023-05-07T12:03:18;97896.81;;;21.29;40.69
78509;BME280;67802;50.846;7.958;2023-05-07T12:05:47;97904.88;;;21.27;40.64
78509;BME280;67802;50.846;7.958;2023-05-07T12:08:20;97906.66;;;21.27;40.57
78509;BME280;67802;50.846;7.958;2023-05-07T12:10:48;97915.56;;;21.26;40.71
78509;BME280;67802;50.846;7.958;2023-05-07T12:13:18;97906.94;;;21.24;40.60
78509;BME280;67802;50.846;7.958;2023-05-07T12:15:43;97918.34;;;21.24;40.62
78509;BME280;67802;50.846;7.958;2023-05-07T12:18:10;97916.66;;;21.23;40.66
78509;BME280;67802;50.846;7.958;2023-05-07T12:20:36;97915.81;;;21.23;40.53
78509;BME280;67802;50.846;7.958;2023-05-07T12:23:02;97919.44;;;21.22;40.46
78509;BME280;67802;50.846;7.958;2023-05-07T12:25:46;97914.16;;;21.22;40.60
78509;BME280;67802;50.846;7.958;2023-05-07T12:28:15;97916.78;;;21.22;40.66
78509;BME280;67802;50.846;7.958;2023-05-07T12:30:42;97923.03;;;21.20;40.62
78509;BME280;67802;50.846;7.958;2023-05-07T12:33:08;97919.44;;;21.22;40.42
78509;BME280;67802;50.846;7.958;2023-05-07T12:35:39;97916.78;;;21.22;40.41
78509;BME280;67802;50.846;7.958;2023-05-07T12:38:17;97923.03;;;21.20;40.40
78509;BME280;67802;50.846;7.958;2023-05-07T12:40:44;97919.44;;;21.22;40.51
78509;BME280;67802;50.846;7.958;2023-05-07T12:43:26;97926.69;;;21.19;40.23
78509;BME280;67802;50.846;7.958;2023-05-07T12:45:57;97925.69;;;21.20;40.33
78509;BME280;67802;50.846;7.958;2023-05-07T12:48:23;97925.69;;;21.20;40.33
78509;BME280;67802;50.846;7.958;2023-05-07T12:50:49;97914.28;;;21.20;40.32
78509;BME280;67802;50.846;7.958;2023-05-07T12:53:15;97917.75;;;21.20;40.40
78509;BME280;67802;50.846;7.958;2023-05-07T12:55:45;97916.13;;;21.19;40.49
78509;BME280;67802;50.846;7.958;2023-05-07T12:58:19;97918.75;;;21.19;40.40
78509;BME280;67802;50.846;7.958;2023-05-07T13:00:47;97917.91;;;21.19;40.47
78509;BME280;67802;50.846;7.958;2023-05-07T13:03:21;97915.41;;;21.17;40.35
78509;BME280;67802;50.846;7.958;2023-05-07T13:05:46;97918.06;;;21.17;40.47
78509;BME280;67802;50.846;7.958;2023-05-07T13:08:12;97912.88;;;21.16;40.52
78509;BME280;67802;50.846;7.958;2023-05-07T13:10:37;97912.88;;;21.16;40.33
78509;BME280;67802;50.846;7.958;2023-05-07T13:13:02;97911.09;;;21.16;40.43
78509;BME280;67802;50.846;7.958;2023-05-07T13:15:28;97918.31;;;21.14;40.34
78509;BME280;67802;50.846;7.958;2023-05-07T13:17:53;97912.19;;;21.14;40.15